Morrilton, Arkansas
Current Conditions -  °F | °C
As of 7:53 AM on Thursday 27 Nov 2014 (Local Time) from KRUE Reporting Station
Clear Clear  
Wind Chill: 29°   Ceiling: Unl
Heat Index: 29°   Visibility: 10mi
Dew Point: 25°   Wind: 0mph
Humidity: 85%   Direction: NA
Pressure: 30.5"   Gusts: NA
Location:  35.15°N, 92.74°W
Report Text: KRUE 271353Z AUTO 00000KT 10SM CLR M02/M04 A3050 RMK AO2 SLP328 T10171039
Loading
Personal Weather Stations






























Interactive Weather Map New forecast layout! Learn more

10-Day Weather Forecast

Advertisements
Track Severe Weather on mobile